sensor_id;sensor_type;location;lat;lon;timestamp;P1;durP1;ratioP1;P2;durP2;ratioP2
4700;SDS011;8724;51.272;6.554;2022-12-05T00:01:39;22.13;;;15.37;;
4700;SDS011;8724;51.272;6.554;2022-12-05T00:04:11;22.67;;;15.77;;
4700;SDS011;8724;51.272;6.554;2022-12-05T00:06:40;23.30;;;15.73;;
4700;SDS011;8724;51.272;6.554;2022-12-05T00:09:10;24.20;;;17.43;;
4700;SDS011;8724;51.272;6.554;2022-12-05T00:11:42;23.47;;;16.40;;
4700;SDS011;8724;51.272;6.554;2022-12-05T00:14:11;25.67;;;17.27;;
4700;SDS011;8724;51.272;6.554;2022-12-05T00:16:40;21.40;;;16.20;;
4700;SDS011;8724;51.272;6.554;2022-12-05T00:19:13;21.67;;;15.87;;
4700;SDS011;8724;51.272;6.554;2022-12-05T00:21:42;25.53;;;17.23;;
4700;SDS011;8724;51.272;6.554;2022-12-05T00:24:12;23.43;;;17.20;;
4700;SDS011;8724;51.272;6.554;2022-12-05T00:26:43;22.20;;;16.00;;
4700;SDS011;8724;51.272;6.554;2022-12-05T00:29:11;18.93;;;15.60;;
4700;SDS011;8724;51.272;6.554;2022-12-05T00:31:40;21.20;;;16.30;;
4700;SDS011;8724;51.272;6.554;2022-12-05T00:34:08;23.97;;;17.27;;
4700;SDS011;8724;51.272;6.554;2022-12-05T00:36:38;23.90;;;16.97;;
4700;SDS011;8724;51.272;6.554;2022-12-05T00:39:07;21.27;;;16.53;;
4700;SDS011;8724;51.272;6.554;2022-12-05T00:41:37;21.50;;;16.03;;
4700;SDS011;8724;51.272;6.554;2022-12-05T00:44:06;20.03;;;15.27;;
4700;SDS011;8724;51.272;6.554;2022-12-05T00:46:38;24.00;;;15.43;;
4700;SDS011;8724;51.272;6.554;2022-12-05T00:49:07;20.50;;;16.27;;
4700;SDS011;8724;51.272;6.554;2022-12-05T00:51:41;21.43;;;16.80;;
4700;SDS011;8724;51.272;6.554;2022-12-05T00:54:11;23.40;;;16.43;;
4700;SDS011;8724;51.272;6.554;2022-12-05T00:56:43;24.10;;;16.40;;
4700;SDS011;8724;51.272;6.554;2022-12-05T00:59:14;25.70;;;16.83;;
4700;SDS011;8724;51.272;6.554;2022-12-05T01:01:44;24.23;;;17.53;;
4700;SDS011;8724;51.272;6.554;2022-12-05T01:04:14;21.00;;;15.90;;
4700;SDS011;8724;51.272;6.554;2022-12-05T01:06:44;21.87;;;16.90;;
4700;SDS011;8724;51.272;6.554;2022-12-05T01:09:15;21.30;;;17.10;;
4700;SDS011;8724;51.272;6.554;2022-12-05T01:11:45;26.87;;;17.80;;
4700;SDS011;8724;51.272;6.554;2022-12-05T01:14:17;23.90;;;16.40;;
4700;SDS011;8724;51.272;6.554;2022-12-05T01:16:47;21.53;;;15.73;;
4700;SDS011;8724;51.272;6.554;2022-12-05T01:19:17;24.30;;;16.97;;
4700;SDS011;8724;51.272;6.554;2022-12-05T01:21:46;25.13;;;16.30;;
4700;SDS011;8724;51.272;6.554;2022-12-05T01:24:15;21.50;;;16.00;;
4700;SDS011;8724;51.272;6.554;2022-12-05T01:26:44;23.67;;;15.93;;
4700;SDS011;8724;51.272;6.554;2022-12-05T01:29:14;21.90;;;15.60;;
4700;SDS011;8724;51.272;6.554;2022-12-05T01:31:45;20.93;;;16.13;;
4700;SDS011;8724;51.272;6.554;2022-12-05T01:34:15;24.23;;;16.23;;
4700;SDS011;8724;51.272;6.554;2022-12-05T01:36:44;19.77;;;15.30;;
4700;SDS011;8724;51.272;6.554;2022-12-05T01:39:14;24.87;;;15.83;;
4700;SDS011;8724;51.272;6.554;2022-12-05T01:41:43;23.00;;;17.33;;
4700;SDS011;8724;51.272;6.554;2022-12-05T01:47:22;26.63;;;17.73;;
4700;SDS011;8724;51.272;6.554;2022-12-05T01:49:51;23.40;;;16.37;;
4700;SDS011;8724;51.272;6.554;2022-12-05T01:52:21;22.13;;;17.10;;
4700;SDS011;8724;51.272;6.554;2022-12-05T01:54:53;21.53;;;16.03;;
4700;SDS011;8724;51.272;6.554;2022-12-05T01:57:25;23.97;;;17.50;;
4700;SDS011;8724;51.272;6.554;2022-12-05T01:59:54;22.77;;;17.50;;
4700;SDS011;8724;51.272;6.554;2022-12-05T02:02:28;22.33;;;16.23;;
4700;SDS011;8724;51.272;6.554;2022-12-05T02:05:00;25.30;;;16.03;;
4700;SDS011;8724;51.272;6.554;2022-12-05T02:07:31;21.83;;;16.37;;
4700;SDS011;8724;51.272;6.554;2022-12-05T02:10:00;24.40;;;17.00;;
4700;SDS011;8724;51.272;6.554;2022-12-05T02:12:28;23.40;;;16.67;;
4700;SDS011;8724;51.272;6.554;2022-12-05T02:15:04;24.07;;;16.00;;
4700;SDS011;8724;51.272;6.554;2022-12-05T02:17:42;23.23;;;16.60;;
4700;SDS011;8724;51.272;6.554;2022-12-05T02:20:22;21.40;;;16.40;;
4700;SDS011;8724;51.272;6.554;2022-12-05T02:26:06;22.60;;;15.80;;
4700;SDS011;8724;51.272;6.554;2022-12-05T02:29:01;23.43;;;16.20;;
4700;SDS011;8724;51.272;6.554;2022-12-05T02:31:46;24.33;;;16.83;;
4700;SDS011;8724;51.272;6.554;2022-12-05T02:34:21;20.33;;;16.33;;
4700;SDS011;8724;51.272;6.554;2022-12-05T02:36:55;23.20;;;14.80;;
4700;SDS011;8724;51.272;6.554;2022-12-05T02:39:31;20.77;;;15.63;;
4700;SDS011;8724;51.272;6.554;2022-12-05T02:42:08;19.90;;;14.47;;
4700;SDS011;8724;51.272;6.554;2022-12-05T02:44:40;19.63;;;15.30;;
4700;SDS011;8724;51.272;6.554;2022-12-05T02:47:14;21.60;;;15.23;;
4700;SDS011;8724;51.272;6.554;2022-12-05T02:49:49;20.17;;;15.43;;
4700;SDS011;8724;51.272;6.554;2022-12-05T02:52:19;21.07;;;15.07;;
4700;SDS011;8724;51.272;6.554;2022-12-05T02:54:49;20.37;;;14.67;;
4700;SDS011;8724;51.272;6.554;2022-12-05T02:57:19;19.23;;;15.03;;
4700;SDS011;8724;51.272;6.554;2022-12-05T02:59:48;18.97;;;15.03;;
4700;SDS011;8724;51.272;6.554;2022-12-05T03:02:23;20.60;;;15.60;;
4700;SDS011;8724;51.272;6.554;2022-12-05T03:04:54;19.90;;;15.10;;
4700;SDS011;8724;51.272;6.554;2022-12-05T03:07:25;20.13;;;15.70;;
4700;SDS011;8724;51.272;6.554;2022-12-05T03:09:58;21.60;;;15.60;;
4700;SDS011;8724;51.272;6.554;2022-12-05T03:12:32;19.90;;;15.40;;
4700;SDS011;8724;51.272;6.554;2022-12-05T03:15:07;24.73;;;17.70;;
4700;SDS011;8724;51.272;6.554;2022-12-05T03:17:47;20.33;;;15.23;;
4700;SDS011;8724;51.272;6.554;2022-12-05T03:20:21;20.10;;;15.50;;
4700;SDS011;8724;51.272;6.554;2022-12-05T03:22:55;21.20;;;16.10;;
4700;SDS011;8724;51.272;6.554;2022-12-05T03:25:29;21.23;;;16.03;;
4700;SDS011;8724;51.272;6.554;2022-12-05T03:28:05;22.03;;;16.73;;
4700;SDS011;8724;51.272;6.554;2022-12-05T03:30:37;23.63;;;15.83;;
4700;SDS011;8724;51.272;6.554;2022-12-05T03:33:09;25.30;;;17.10;;
4700;SDS011;8724;51.272;6.554;2022-12-05T03:35:41;22.03;;;15.90;;
4700;SDS011;8724;51.272;6.554;2022-12-05T03:38:15;25.70;;;16.60;;
4700;SDS011;8724;51.272;6.554;2022-12-05T03:40:50;22.10;;;15.97;;
4700;SDS011;8724;51.272;6.554;2022-12-05T03:43:24;20.37;;;14.40;;
4700;SDS011;8724;51.272;6.554;2022-12-05T03:46:02;25.67;;;17.83;;
4700;SDS011;8724;51.272;6.554;2022-12-05T03:48:36;21.83;;;16.10;;
4700;SDS011;8724;51.272;6.554;2022-12-05T03:51:12;22.50;;;16.70;;
4700;SDS011;8724;51.272;6.554;2022-12-05T03:53:47;24.60;;;16.90;;
4700;SDS011;8724;51.272;6.554;2022-12-05T03:56:20;23.97;;;18.30;;
4700;SDS011;8724;51.272;6.554;2022-12-05T03:58:54;22.80;;;16.33;;
4700;SDS011;8724;51.272;6.554;2022-12-05T04:01:29;22.50;;;15.70;;
4700;SDS011;8724;51.272;6.554;2022-12-05T04:04:06;25.23;;;18.23;;
4700;SDS011;8724;51.272;6.554;2022-12-05T04:06:37;20.13;;;15.97;;
4700;SDS011;8724;51.272;6.554;2022-12-05T04:09:09;22.57;;;17.53;;
4700;SDS011;8724;51.272;6.554;2022-12-05T04:11:44;31.63;;;18.90;;
4700;SDS011;8724;51.272;6.554;2022-12-05T04:14:18;20.70;;;17.20;;
4700;SDS011;8724;51.272;6.554;2022-12-05T04:16:54;24.53;;;17.07;;
4700;SDS011;8724;51.272;6.554;2022-12-05T04:19:34;20.43;;;16.13;;
4700;SDS011;8724;51.272;6.554;2022-12-05T04:22:35;23.73;;;16.93;;
4700;SDS011;8724;51.272;6.554;2022-12-05T04:25:09;23.07;;;16.20;;
4700;SDS011;8724;51.272;6.554;2022-12-05T04:28:03;20.13;;;15.70;;
4700;SDS011;8724;51.272;6.554;2022-12-05T04:30:52;21.93;;;16.33;;
4700;SDS011;8724;51.272;6.554;2022-12-05T04:33:32;20.87;;;16.20;;
4700;SDS011;8724;51.272;6.554;2022-12-05T04:36:12;20.20;;;14.57;;
4700;SDS011;8724;51.272;6.554;2022-12-05T04:38:49;21.47;;;15.13;;
4700;SDS011;8724;51.272;6.554;2022-12-05T04:41:24;20.40;;;14.93;;
4700;SDS011;8724;51.272;6.554;2022-12-05T04:44:10;18.30;;;15.27;;
4700;SDS011;8724;51.272;6.554;2022-12-05T04:46:50;19.17;;;14.43;;
4700;SDS011;8724;51.272;6.554;2022-12-05T04:49:30;18.67;;;15.27;;
4700;SDS011;8724;51.272;6.554;2022-12-05T04:52:10;24.10;;;16.00;;
4700;SDS011;8724;51.272;6.554;2022-12-05T04:54:47;20.77;;;16.00;;
4700;SDS011;8724;51.272;6.554;2022-12-05T04:57:28;22.73;;;16.40;;
4700;SDS011;8724;51.272;6.554;2022-12-05T05:00:12;26.30;;;20.03;;
4700;SDS011;8724;51.272;6.554;2022-12-05T05:02:44;30.00;;;19.63;;
4700;SDS011;8724;51.272;6.554;2022-12-05T05:05:24;43.13;;;31.53;;
4700;SDS011;8724;51.272;6.554;2022-12-05T05:08:18;30.23;;;22.10;;
4700;SDS011;8724;51.272;6.554;2022-12-05T05:11:02;23.10;;;18.40;;
4700;SDS011;8724;51.272;6.554;2022-12-05T05:13:48;18.47;;;15.83;;
4700;SDS011;8724;51.272;6.554;2022-12-05T05:16:27;19.30;;;14.50;;
4700;SDS011;8724;51.272;6.554;2022-12-05T05:19:02;22.37;;;17.17;;
4700;SDS011;8724;51.272;6.554;2022-12-05T05:21:40;21.70;;;15.90;;
4700;SDS011;8724;51.272;6.554;2022-12-05T05:24:21;21.07;;;16.27;;
4700;SDS011;8724;51.272;6.554;2022-12-05T05:27:08;21.30;;;16.70;;
4700;SDS011;8724;51.272;6.554;2022-12-05T05:29:55;20.37;;;15.00;;
4700;SDS011;8724;51.272;6.554;2022-12-05T05:32:34;24.60;;;17.03;;
4700;SDS011;8724;51.272;6.554;2022-12-05T05:35:22;18.50;;;16.00;;
4700;SDS011;8724;51.272;6.554;2022-12-05T05:38:05;19.73;;;15.10;;
4700;SDS011;8724;51.272;6.554;2022-12-05T05:40:39;21.87;;;16.83;;
4700;SDS011;8724;51.272;6.554;2022-12-05T05:43:12;16.67;;;14.30;;
4700;SDS011;8724;51.272;6.554;2022-12-05T05:45:43;19.20;;;16.70;;
4700;SDS011;8724;51.272;6.554;2022-12-05T05:48:15;65.57;;;43.37;;
4700;SDS011;8724;51.272;6.554;2022-12-05T05:50:48;66.47;;;46.73;;
4700;SDS011;8724;51.272;6.554;2022-12-05T05:53:25;53.43;;;39.57;;
4700;SDS011;8724;51.272;6.554;2022-12-05T05:56:02;35.80;;;26.60;;
4700;SDS011;8724;51.272;6.554;2022-12-05T05:59:00;24.17;;;19.83;;
4700;SDS011;8724;51.272;6.554;2022-12-05T06:01:51;22.17;;;16.03;;
4700;SDS011;8724;51.272;6.554;2022-12-05T06:04:27;22.70;;;16.37;;
4700;SDS011;8724;51.272;6.554;2022-12-05T06:06:59;25.00;;;16.37;;
4700;SDS011;8724;51.272;6.554;2022-12-05T06:09:31;22.03;;;17.20;;
4700;SDS011;8724;51.272;6.554;2022-12-05T06:12:10;20.70;;;15.73;;
4700;SDS011;8724;51.272;6.554;2022-12-05T06:14:39;18.83;;;15.47;;
4700;SDS011;8724;51.272;6.554;2022-12-05T06:17:17;20.40;;;15.53;;
4700;SDS011;8724;51.272;6.554;2022-12-05T06:19:50;21.57;;;15.17;;
4700;SDS011;8724;51.272;6.554;2022-12-05T06:22:19;22.43;;;15.87;;
4700;SDS011;8724;51.272;6.554;2022-12-05T06:24:50;19.50;;;15.37;;
4700;SDS011;8724;51.272;6.554;2022-12-05T06:27:23;16.17;;;13.53;;
4700;SDS011;8724;51.272;6.554;2022-12-05T06:29:54;18.60;;;14.37;;
4700;SDS011;8724;51.272;6.554;2022-12-05T06:32:26;17.03;;;13.60;;
4700;SDS011;8724;51.272;6.554;2022-12-05T06:35:08;20.07;;;13.80;;
4700;SDS011;8724;51.272;6.554;2022-12-05T06:37:41;17.70;;;12.97;;
4700;SDS011;8724;51.272;6.554;2022-12-05T06:40:11;20.33;;;13.70;;
4700;SDS011;8724;51.272;6.554;2022-12-05T06:42:43;20.73;;;13.70;;
4700;SDS011;8724;51.272;6.554;2022-12-05T06:45:12;18.80;;;13.10;;
4700;SDS011;8724;51.272;6.554;2022-12-05T06:47:49;18.70;;;13.93;;
4700;SDS011;8724;51.272;6.554;2022-12-05T06:50:24;16.47;;;12.80;;
4700;SDS011;8724;51.272;6.554;2022-12-05T06:52:53;19.23;;;15.23;;
4700;SDS011;8724;51.272;6.554;2022-12-05T06:55:23;23.97;;;18.00;;
4700;SDS011;8724;51.272;6.554;2022-12-05T06:57:56;23.87;;;16.90;;
4700;SDS011;8724;51.272;6.554;2022-12-05T07:00:32;21.50;;;16.57;;
4700;SDS011;8724;51.272;6.554;2022-12-05T07:03:19;17.43;;;13.60;;
4700;SDS011;8724;51.272;6.554;2022-12-05T07:05:48;21.13;;;14.47;;
4700;SDS011;8724;51.272;6.554;2022-12-05T07:08:21;18.50;;;14.03;;
4700;SDS011;8724;51.272;6.554;2022-12-05T07:10:52;17.83;;;14.57;;
4700;SDS011;8724;51.272;6.554;2022-12-05T07:13:23;17.80;;;15.00;;
4700;SDS011;8724;51.272;6.554;2022-12-05T07:15:53;19.60;;;15.27;;
4700;SDS011;8724;51.272;6.554;2022-12-05T07:18:24;19.30;;;15.10;;
4700;SDS011;8724;51.272;6.554;2022-12-05T07:20:57;19.70;;;14.63;;
4700;SDS011;8724;51.272;6.554;2022-12-05T07:23:43;20.57;;;14.37;;
4700;SDS011;8724;51.272;6.554;2022-12-05T07:26:14;18.07;;;15.30;;
4700;SDS011;8724;51.272;6.554;2022-12-05T07:28:47;18.50;;;14.30;;
4700;SDS011;8724;51.272;6.554;2022-12-05T07:31:17;18.50;;;15.03;;
4700;SDS011;8724;51.272;6.554;2022-12-05T07:33:57;17.03;;;14.23;;
4700;SDS011;8724;51.272;6.554;2022-12-05T07:36:31;19.07;;;15.00;;
4700;SDS011;8724;51.272;6.554;2022-12-05T07:39:03;19.07;;;14.90;;
4700;SDS011;8724;51.272;6.554;2022-12-05T07:41:34;17.23;;;14.50;;
4700;SDS011;8724;51.272;6.554;2022-12-05T07:44:10;19.00;;;14.93;;
4700;SDS011;8724;51.272;6.554;2022-12-05T07:46:46;20.73;;;15.90;;
4700;SDS011;8724;51.272;6.554;2022-12-05T07:49:15;18.20;;;15.23;;
4700;SDS011;8724;51.272;6.554;2022-12-05T07:51:45;28.40;;;21.20;;
4700;SDS011;8724;51.272;6.554;2022-12-05T07:54:16;33.37;;;25.90;;
4700;SDS011;8724;51.272;6.554;2022-12-05T07:56:47;24.93;;;18.77;;
4700;SDS011;8724;51.272;6.554;2022-12-05T07:59:18;22.37;;;15.53;;
4700;SDS011;8724;51.272;6.554;2022-12-05T08:01:49;18.70;;;13.63;;
4700;SDS011;8724;51.272;6.554;2022-12-05T08:04:19;16.13;;;13.33;;
4700;SDS011;8724;51.272;6.554;2022-12-05T08:06:52;16.23;;;13.27;;
4700;SDS011;8724;51.272;6.554;2022-12-05T08:09:21;17.70;;;13.90;;
4700;SDS011;8724;51.272;6.554;2022-12-05T08:11:56;16.70;;;12.70;;
4700;SDS011;8724;51.272;6.554;2022-12-05T08:14:27;14.57;;;12.97;;
4700;SDS011;8724;51.272;6.554;2022-12-05T08:16:56;13.93;;;12.40;;
4700;SDS011;8724;51.272;6.554;2022-12-05T08:19:25;17.47;;;13.50;;
4700;SDS011;8724;51.272;6.554;2022-12-05T08:21:57;14.63;;;13.10;;
4700;SDS011;8724;51.272;6.554;2022-12-05T08:24:26;13.97;;;12.03;;
4700;SDS011;8724;51.272;6.554;2022-12-05T08:26:56;17.67;;;13.73;;
4700;SDS011;8724;51.272;6.554;2022-12-05T08:29:28;13.60;;;12.13;;
4700;SDS011;8724;51.272;6.554;2022-12-05T08:31:57;17.23;;;13.63;;
4700;SDS011;8724;51.272;6.554;2022-12-05T08:34:30;15.23;;;12.63;;
4700;SDS011;8724;51.272;6.554;2022-12-05T08:36:59;17.60;;;14.03;;
4700;SDS011;8724;51.272;6.554;2022-12-05T08:39:28;14.97;;;12.70;;
4700;SDS011;8724;51.272;6.554;2022-12-05T08:42:04;14.17;;;12.30;;
4700;SDS011;8724;51.272;6.554;2022-12-05T08:44:38;18.50;;;13.10;;
4700;SDS011;8724;51.272;6.554;2022-12-05T08:47:18;12.70;;;11.00;;
4700;SDS011;8724;51.272;6.554;2022-12-05T08:49:51;14.00;;;11.80;;
4700;SDS011;8724;51.272;6.554;2022-12-05T08:52:29;17.20;;;13.57;;
4700;SDS011;8724;51.272;6.554;2022-12-05T08:55:10;13.90;;;11.60;;
4700;SDS011;8724;51.272;6.554;2022-12-05T08:57:39;13.17;;;11.23;;
4700;SDS011;8724;51.272;6.554;2022-12-05T09:00:13;26.53;;;20.60;;
4700;SDS011;8724;51.272;6.554;2022-12-05T09:02:46;25.60;;;20.03;;
4700;SDS011;8724;51.272;6.554;2022-12-05T09:05:18;18.10;;;16.07;;
4700;SDS011;8724;51.272;6.554;2022-12-05T09:07:56;16.90;;;14.10;;
4700;SDS011;8724;51.272;6.554;2022-12-05T09:10:27;13.70;;;12.27;;
4700;SDS011;8724;51.272;6.554;2022-12-05T09:12:56;15.33;;;12.37;;
4700;SDS011;8724;51.272;6.554;2022-12-05T09:15:38;13.10;;;11.80;;
4700;SDS011;8724;51.272;6.554;2022-12-05T09:18:08;15.17;;;11.83;;
4700;SDS011;8724;51.272;6.554;2022-12-05T09:20:40;12.73;;;10.43;;
4700;SDS011;8724;51.272;6.554;2022-12-05T09:23:13;13.53;;;11.47;;
4700;SDS011;8724;51.272;6.554;2022-12-05T09:25:53;12.27;;;10.97;;
4700;SDS011;8724;51.272;6.554;2022-12-05T09:28:25;14.03;;;11.87;;
4700;SDS011;8724;51.272;6.554;2022-12-05T09:31:05;13.53;;;10.70;;
4700;SDS011;8724;51.272;6.554;2022-12-05T09:33:41;12.37;;;10.70;;
4700;SDS011;8724;51.272;6.554;2022-12-05T09:36:16;12.20;;;10.87;;
4700;SDS011;8724;51.272;6.554;2022-12-05T09:38:55;14.87;;;11.33;;
4700;SDS011;8724;51.272;6.554;2022-12-05T09:41:40;13.40;;;11.73;;
4700;SDS011;8724;51.272;6.554;2022-12-05T09:44:48;11.20;;;9.50;;
4700;SDS011;8724;51.272;6.554;2022-12-05T09:47:35;12.80;;;11.50;;
4700;SDS011;8724;51.272;6.554;2022-12-05T09:50:22;12.40;;;11.03;;
4700;SDS011;8724;51.272;6.554;2022-12-05T09:53:10;12.87;;;11.57;;
4700;SDS011;8724;51.272;6.554;2022-12-05T09:55:52;11.73;;;10.13;;
4700;SDS011;8724;51.272;6.554;2022-12-05T09:58:39;14.45;;;11.90;;
4700;SDS011;8724;51.272;6.554;2022-12-05T10:01:24;14.30;;;11.97;;
4700;SDS011;8724;51.272;6.554;2022-12-05T10:04:18;12.63;;;11.33;;
4700;SDS011;8724;51.272;6.554;2022-12-05T10:07:09;13.80;;;12.10;;
4700;SDS011;8724;51.272;6.554;2022-12-05T10:09:58;13.80;;;11.97;;
4700;SDS011;8724;51.272;6.554;2022-12-05T10:12:50;12.43;;;11.13;;
4700;SDS011;8724;51.272;6.554;2022-12-05T10:15:44;13.30;;;11.90;;
4700;SDS011;8724;51.272;6.554;2022-12-05T10:18:27;12.73;;;11.53;;
4700;SDS011;8724;51.272;6.554;2022-12-05T10:21:13;13.73;;;11.20;;
4700;SDS011;8724;51.272;6.554;2022-12-05T10:23:50;13.40;;;11.33;;
4700;SDS011;8724;51.272;6.554;2022-12-05T10:26:25;11.47;;;10.27;;
4700;SDS011;8724;51.272;6.554;2022-12-05T10:28:59;12.20;;;11.00;;
4700;SDS011;8724;51.272;6.554;2022-12-05T10:31:36;11.73;;;10.60;;
4700;SDS011;8724;51.272;6.554;2022-12-05T10:34:10;11.23;;;9.90;;
4700;SDS011;8724;51.272;6.554;2022-12-05T10:36:44;12.03;;;10.37;;
4700;SDS011;8724;51.272;6.554;2022-12-05T10:39:21;14.10;;;10.87;;
4700;SDS011;8724;51.272;6.554;2022-12-05T10:41:49;10.87;;;9.80;;
4700;SDS011;8724;51.272;6.554;2022-12-05T10:44:18;9.97;;;9.03;;
4700;SDS011;8724;51.272;6.554;2022-12-05T10:46:46;8.60;;;7.50;;
4700;SDS011;8724;51.272;6.554;2022-12-05T10:49:15;8.77;;;7.97;;
4700;SDS011;8724;51.272;6.554;2022-12-05T10:51:45;10.70;;;8.30;;
4700;SDS011;8724;51.272;6.554;2022-12-05T10:54:16;10.50;;;9.40;;
4700;SDS011;8724;51.272;6.554;2022-12-05T10:56:46;15.60;;;13.67;;
4700;SDS011;8724;51.272;6.554;2022-12-05T10:59:16;25.00;;;19.93;;
4700;SDS011;8724;51.272;6.554;2022-12-05T11:01:48;14.90;;;12.80;;
4700;SDS011;8724;51.272;6.554;2022-12-05T11:04:21;11.60;;;9.90;;
4700;SDS011;8724;51.272;6.554;2022-12-05T11:06:54;11.50;;;10.50;;
4700;SDS011;8724;51.272;6.554;2022-12-05T11:09:25;10.37;;;8.33;;
4700;SDS011;8724;51.272;6.554;2022-12-05T11:12:03;10.20;;;9.20;;
4700;SDS011;8724;51.272;6.554;2022-12-05T11:14:52;11.87;;;9.60;;
4700;SDS011;8724;51.272;6.554;2022-12-05T11:17:23;11.20;;;10.10;;
4700;SDS011;8724;51.272;6.554;2022-12-05T11:19:53;9.90;;;8.90;;
4700;SDS011;8724;51.272;6.554;2022-12-05T11:22:30;10.77;;;9.67;;
4700;SDS011;8724;51.272;6.554;2022-12-05T11:25:00;9.93;;;8.93;;
4700;SDS011;8724;51.272;6.554;2022-12-05T11:27:50;10.80;;;9.70;;
4700;SDS011;8724;51.272;6.554;2022-12-05T11:30:25;11.53;;;9.63;;
4700;SDS011;8724;51.272;6.554;2022-12-05T11:33:09;10.33;;;9.43;;
4700;SDS011;8724;51.272;6.554;2022-12-05T11:35:38;10.73;;;9.73;;
4700;SDS011;8724;51.272;6.554;2022-12-05T11:38:08;9.60;;;8.70;;
4700;SDS011;8724;51.272;6.554;2022-12-05T11:40:41;10.07;;;9.07;;
4700;SDS011;8724;51.272;6.554;2022-12-05T11:43:24;8.60;;;7.90;;
4700;SDS011;8724;51.272;6.554;2022-12-05T11:46:13;9.60;;;8.70;;
4700;SDS011;8724;51.272;6.554;2022-12-05T11:48:57;13.37;;;9.40;;
4700;SDS011;8724;51.272;6.554;2022-12-05T11:51:36;9.97;;;8.97;;
4700;SDS011;8724;51.272;6.554;2022-12-05T11:57:23;29.13;;;23.47;;
4700;SDS011;8724;51.272;6.554;2022-12-05T12:00:13;16.50;;;13.67;;
4700;SDS011;8724;51.272;6.554;2022-12-05T12:05:49;10.17;;;9.20;;
4700;SDS011;8724;51.272;6.554;2022-12-05T12:08:28;9.30;;;8.37;;
4700;SDS011;8724;51.272;6.554;2022-12-05T12:11:02;8.83;;;7.70;;
4700;SDS011;8724;51.272;6.554;2022-12-05T12:13:44;8.87;;;8.07;;
4700;SDS011;8724;51.272;6.554;2022-12-05T12:16:32;9.43;;;8.63;;
4700;SDS011;8724;51.272;6.554;2022-12-05T12:19:14;9.13;;;8.30;;
4700;SDS011;8724;51.272;6.554;2022-12-05T12:21:55;10.30;;;9.40;;
4700;SDS011;8724;51.272;6.554;2022-12-05T12:24:44;11.80;;;9.47;;
4700;SDS011;8724;51.272;6.554;2022-12-05T12:27:31;10.00;;;9.00;;
4700;SDS011;8724;51.272;6.554;2022-12-05T12:30:11;10.50;;;9.50;;
4700;SDS011;8724;51.272;6.554;2022-12-05T12:32:46;11.13;;;9.97;;
4700;SDS011;8724;51.272;6.554;2022-12-05T12:35:25;10.03;;;9.13;;
4700;SDS011;8724;51.272;6.554;2022-12-05T12:37:59;11.43;;;10.30;;
4700;SDS011;8724;51.272;6.554;2022-12-05T12:40:38;10.50;;;9.50;;
4700;SDS011;8724;51.272;6.554;2022-12-05T12:43:15;11.23;;;10.13;;
4700;SDS011;8724;51.272;6.554;2022-12-05T12:46:15;10.80;;;9.23;;
4700;SDS011;8724;51.272;6.554;2022-12-05T12:52:03;45.03;;;36.83;;
4700;SDS011;8724;51.272;6.554;2022-12-05T12:54:42;30.10;;;25.23;;
4700;SDS011;8724;51.272;6.554;2022-12-05T12:57:39;18.27;;;16.40;;
4700;SDS011;8724;51.272;6.554;2022-12-05T13:00:21;15.13;;;12.77;;
4700;SDS011;8724;51.272;6.554;2022-12-05T13:03:04;12.33;;;11.20;;
4700;SDS011;8724;51.272;6.554;2022-12-05T13:05:41;11.33;;;10.33;;
4700;SDS011;8724;51.272;6.554;2022-12-05T13:08:15;12.13;;;11.10;;
4700;SDS011;8724;51.272;6.554;2022-12-05T13:10:50;10.50;;;9.53;;
4700;SDS011;8724;51.272;6.554;2022-12-05T13:13:20;10.77;;;9.77;;
4700;SDS011;8724;51.272;6.554;2022-12-05T13:15:51;10.70;;;9.70;;
4700;SDS011;8724;51.272;6.554;2022-12-05T13:18:23;11.27;;;10.17;;
4700;SDS011;8724;51.272;6.554;2022-12-05T13:20:52;12.23;;;11.03;;
4700;SDS011;8724;51.272;6.554;2022-12-05T13:23:24;11.67;;;10.50;;
4700;SDS011;8724;51.272;6.554;2022-12-05T13:25:55;11.70;;;10.47;;
4700;SDS011;8724;51.272;6.554;2022-12-05T13:28:26;11.97;;;10.83;;
4700;SDS011;8724;51.272;6.554;2022-12-05T13:30:59;11.20;;;10.20;;
4700;SDS011;8724;51.272;6.554;2022-12-05T13:33:31;11.33;;;10.23;;
4700;SDS011;8724;51.272;6.554;2022-12-05T13:36:06;11.50;;;10.30;;
4700;SDS011;8724;51.272;6.554;2022-12-05T13:38:57;11.40;;;10.20;;
4700;SDS011;8724;51.272;6.554;2022-12-05T13:41:45;10.03;;;9.13;;
4700;SDS011;8724;51.272;6.554;2022-12-05T13:44:39;10.80;;;9.73;;
4700;SDS011;8724;51.272;6.554;2022-12-05T13:47:20;11.10;;;9.90;;
4700;SDS011;8724;51.272;6.554;2022-12-05T13:49:59;11.27;;;10.17;;
4700;SDS011;8724;51.272;6.554;2022-12-05T13:52:31;10.77;;;9.77;;
4700;SDS011;8724;51.272;6.554;2022-12-05T13:55:13;11.10;;;9.30;;
4700;SDS011;8724;51.272;6.554;2022-12-05T13:57:50;10.77;;;9.87;;
4700;SDS011;8724;51.272;6.554;2022-12-05T14:00:27;10.97;;;9.87;;
4700;SDS011;8724;51.272;6.554;2022-12-05T14:03:06;13.90;;;12.37;;
4700;SDS011;8724;51.272;6.554;2022-12-05T14:05:44;13.43;;;12.10;;
4700;SDS011;8724;51.272;6.554;2022-12-05T14:11:21;10.13;;;9.17;;
4700;SDS011;8724;51.272;6.554;2022-12-05T14:13:50;10.20;;;9.30;;
4700;SDS011;8724;51.272;6.554;2022-12-05T14:19:40;10.57;;;9.57;;
4700;SDS011;8724;51.272;6.554;2022-12-05T14:25:27;28.20;;;24.03;;
4700;SDS011;8724;51.272;6.554;2022-12-05T14:28:28;18.97;;;16.43;;
4700;SDS011;8724;51.272;6.554;2022-12-05T14:31:17;10.50;;;9.50;;
4700;SDS011;8724;51.272;6.554;2022-12-05T14:34:04;9.73;;;8.73;;
4700;SDS011;8724;51.272;6.554;2022-12-05T14:36:50;7.90;;;7.20;;
4700;SDS011;8724;51.272;6.554;2022-12-05T14:39:28;9.27;;;8.10;;
4700;SDS011;8724;51.272;6.554;2022-12-05T14:42:01;7.80;;;7.17;;
4700;SDS011;8724;51.272;6.554;2022-12-05T14:44:35;8.60;;;7.80;;
4700;SDS011;8724;51.272;6.554;2022-12-05T14:47:03;8.30;;;7.60;;
4700;SDS011;8724;51.272;6.554;2022-12-05T14:49:34;8.77;;;8.07;;
4700;SDS011;8724;51.272;6.554;2022-12-05T14:52:19;8.70;;;7.90;;
4700;SDS011;8724;51.272;6.554;2022-12-05T14:54:50;10.20;;;8.73;;
4700;SDS011;8724;51.272;6.554;2022-12-05T14:57:22;11.47;;;9.37;;
4700;SDS011;8724;51.272;6.554;2022-12-05T14:59:52;11.37;;;9.90;;
4700;SDS011;8724;51.272;6.554;2022-12-05T15:02:28;11.90;;;10.70;;
4700;SDS011;8724;51.272;6.554;2022-12-05T15:04:59;10.97;;;9.97;;
4700;SDS011;8724;51.272;6.554;2022-12-05T15:07:32;11.03;;;10.03;;
4700;SDS011;8724;51.272;6.554;2022-12-05T15:10:03;10.83;;;9.83;;
4700;SDS011;8724;51.272;6.554;2022-12-05T15:12:39;10.40;;;9.40;;
4700;SDS011;8724;51.272;6.554;2022-12-05T15:15:14;10.37;;;9.47;;
4700;SDS011;8724;51.272;6.554;2022-12-05T15:17:48;10.80;;;9.80;;
4700;SDS011;8724;51.272;6.554;2022-12-05T15:20:21;9.30;;;8.50;;
4700;SDS011;8724;51.272;6.554;2022-12-05T15:23:02;19.43;;;16.80;;
4700;SDS011;8724;51.272;6.554;2022-12-05T15:25:31;25.93;;;20.33;;
4700;SDS011;8724;51.272;6.554;2022-12-05T15:28:00;11.67;;;10.50;;
4700;SDS011;8724;51.272;6.554;2022-12-05T15:30:33;16.27;;;14.33;;
4700;SDS011;8724;51.272;6.554;2022-12-05T15:33:09;26.97;;;21.80;;
4700;SDS011;8724;51.272;6.554;2022-12-05T15:35:38;18.00;;;14.20;;
4700;SDS011;8724;51.272;6.554;2022-12-05T15:38:14;9.80;;;8.90;;
4700;SDS011;8724;51.272;6.554;2022-12-05T15:40:53;9.73;;;8.83;;
4700;SDS011;8724;51.272;6.554;2022-12-05T15:43:25;7.73;;;7.03;;
4700;SDS011;8724;51.272;6.554;2022-12-05T15:46:13;7.30;;;6.67;;
4700;SDS011;8724;51.272;6.554;2022-12-05T15:48:50;8.60;;;7.67;;
4700;SDS011;8724;51.272;6.554;2022-12-05T15:51:19;7.87;;;7.17;;
4700;SDS011;8724;51.272;6.554;2022-12-05T15:53:52;8.87;;;7.97;;
4700;SDS011;8724;51.272;6.554;2022-12-05T15:56:24;8.50;;;7.70;;
4700;SDS011;8724;51.272;6.554;2022-12-05T15:58:57;8.87;;;8.10;;
4700;SDS011;8724;51.272;6.554;2022-12-05T16:01:32;8.30;;;7.50;;
4700;SDS011;8724;51.272;6.554;2022-12-05T16:04:11;7.53;;;6.93;;
4700;SDS011;8724;51.272;6.554;2022-12-05T16:06:51;8.60;;;7.70;;
4700;SDS011;8724;51.272;6.554;2022-12-05T16:09:22;7.90;;;7.20;;